• Join FlightAware (Why Join?)
  • Login
  • US Flag 
Rudolph Flight #1: Arrived! 
03:19PM EST


 

Airport Tracker/Info


-or-


 

Live Flight TrackerFlight Track Log ✈ SWA3028 ✈ 05-May-2013 ✈ KATL - KMDW

Flight Track Log - Related Links

Times and Time Zones

All times are in EDT time to prevent confusion due to time zone crossing. See the SWA3028 flight status page for this flight to view local times or setup timezone preferences in your user account.

Time Position Orientation Groundspeed Altitude Reporting Facility
EDT Latitude Longitude Course Direction KTS MPH feet Rate Location/Type
06:09AM 33.6500 -84.4667 320° Northwest 153 176 2,500  Level Atlanta TRACON
06:10AM 33.6500 -84.5333 270° West 222 255 4,400 2,100 Climbing Atlanta TRACON
06:11AM 33.7000 -84.5833 320° Northwest 273 314 6,700 2,280 Climbing Atlanta TRACON
06:13AM 33.8703 -84.5867 359° North 338 389 11,400 2,760 Climbing Atlanta Center
06:14AM 33.9892 -84.5925 358° North 375 432 15,100 3,420 Climbing Atlanta Center
06:15AM 34.0637 -84.3970 320° Northwest  Level FlightAware Approximate
06:15AM 34.1019 -84.5933 360° North 397 457 18,300  Level Atlanta Center
06:16AM 34.2186 -84.6192 350° North 419 482 21,200 2,700 Climbing Atlanta Center
06:17AM 34.3397 -84.6475 349° North 434 499 23,700 2,340 Climbing Atlanta Center
06:18AM 34.4606 -84.6761 349° North 440 506 25,900 2,100 Climbing Atlanta Center
06:19AM 34.5897 -84.7050 350° North 459 528 27,900 1,800 Climbing Atlanta Center
06:20AM 34.7211 -84.7389 348° North 470 541 29,600 1,620 Climbing Atlanta Center
06:21AM 34.8564 -84.7728 348° North 475 547 31,200 5,160 Climbing Atlanta Center
06:22AM 34.9939 -84.8044 349° North 490 564 40,000 1,800 Climbing Atlanta Center
06:23AM 35.1294 -84.8361 349° North 495 570 34,900 -1,740 Descending Atlanta Center
06:24AM 35.2647 -84.8681 349° North 495 570 36,600 1,740 Climbing Atlanta Center
06:25AM 35.3981 -84.9000 349° North 490 564 38,400 1,500 Climbing Atlanta Center
06:26AM 35.5231 -84.9319 348° North 473 544 39,700 780 Climbing Atlanta Center
06:27AM 35.6500 -84.9639 348° North 467 537 40,000 120 Climbing Atlanta Center
06:28AM 35.7564 -84.9881 350° North 467 537 40,000  Level Atlanta Center
06:30AM 35.9750 -85.0408 349° North 476 548 40,000  Level Indianapolis Center
06:31AM 36.1058 -85.0722 349° North 474 545 40,000  Level Indianapolis Center
06:32AM 36.2369 -85.1044 349° North 478 550 40,000  Level Indianapolis Center
06:33AM 36.3686 -85.1372 349° North 480 552 40,000  Level Indianapolis Center
06:34AM 36.4997 -85.1692 349° North 480 552 40,000  Level Indianapolis Center
06:35AM 36.6300 -85.2017 349° North 477 549 40,000  Level Indianapolis Center
06:36AM 36.7603 -85.2361 348° North 477 549 40,000  Level Indianapolis Center
06:37AM 36.8914 -85.2669 349° North 479 551 40,000  Level Indianapolis Center
06:38AM 37.0222 -85.3003 349° North 478 550 40,000  Level Indianapolis Center
06:39AM 37.1517 -85.3331 349° North 480 552 40,000  Level Indianapolis Center
06:40AM 37.2867 -85.3658 349° North 488 562 40,000  Level Indianapolis Center
06:41AM 37.4189 -85.4000 348° North 486 559 40,000  Level Indianapolis Center
06:42AM 37.5528 -85.4344 348° North 490 564 40,000  Level Indianapolis Center
06:43AM 37.6847 -85.4692 348° North 486 559 40,000  Level Indianapolis Center
06:44AM 37.8200 -85.4928 352° North 489 563 40,000  Level Indianapolis Center
06:45AM 37.9506 -85.5172 352° North 488 562 40,000  Level Indianapolis Center
06:46AM 38.0828 -85.5458 350° North 482 555 40,000 -420 Level Indianapolis Center
06:47AM 38.2172 -85.5722 351° North 487 560 39,200 -1,260 Descending Indianapolis Center
06:48AM 38.3500 -85.5989 351° North 483 556 37,500 -2,040 Descending Indianapolis Center
06:49AM 38.4817 -85.6267 351° North 480 552 35,100 -1,260 Descending Indianapolis Center
06:50AM 38.6375 -85.6589 351° North 482 555 35,000 -60 Descending Indianapolis Center
06:51AM 38.7689 -85.6856 351° North 481 554 35,000 -600 Level Indianapolis Center
06:52AM 38.8981 -85.7122 351° North 474 545 33,800 -1,380 Descending Indianapolis Center
06:53AM 39.0314 -85.7400 351° North 484 557 32,300 -1,500 Descending Indianapolis Center
06:54AM 39.1656 -85.7672 351° North 490 564 30,800 -1,140 Descending Indianapolis Center
06:55AM 39.3000 -85.7956 351° North 492 566 30,000 -1,140 Descending Indianapolis Center
06:56AM 39.4231 -85.8219 351° North 459 528 28,600 -1,440 Descending Indianapolis Center
06:57AM 39.5444 -85.8483 350° North 448 516 27,100 -1,440 Descending Indianapolis Center
06:58AM 39.6633 -85.8717 351° North 440 506 25,700 -1,200 Descending Indianapolis Center
06:59AM 39.7822 -85.8975 351° North 439 505 24,800 -900 Descending Indianapolis Center
07:00AM 39.9211 -85.9275 351° North 430 495 24,000 -420 Descending Indianapolis Center
07:01AM 40.0333 -85.9508 351° North 413 475 24,000  Level Indianapolis Center
07:02AM 40.1417 -85.9753 350° North 402 463 24,000 -300 Level Indianapolis Center
07:03AM 40.2258 -86.0156 340° North 406 467 23,500 -840 Descending Chicago Center
07:04AM 40.3303 -86.0681 339° North 407 468 22,500 -1,020 Descending Chicago Center
07:05AM 40.4311 -86.1186 339° North 393 452 21,500 -1,080 Descending Chicago Center
07:06AM 40.5306 -86.1686 339° North 385 443 20,400 -1,380 Descending Chicago Center
07:07AM 40.6289 -86.2194 339° North 381 438 18,800 -1,620 Descending Chicago Center
07:08AM 40.7183 -86.2636 339° North 369 425 17,200 -1,680 Descending Chicago Center
07:09AM 40.8125 -86.3119 339° North 362 417 15,500 -1,740 Descending Chicago Center
07:10AM 40.9042 -86.3592 339° North 354 407 13,700 -1,740 Descending Chicago Center
07:11AM 40.9917 -86.4039 339° North 340 391 12,000 -1,380 Descending Chicago Center
07:12AM 41.0694 -86.4653 329° Northwest 331 381 11,000 -840 Descending Chicago Center
07:13AM 41.1306 -86.5594 311° West 333 383 10,400 -540 Descending Chicago Center
07:14AM 41.1900 -86.6517 311° West 329 379 10,000 -240 Descending Chicago Center
07:15AM 41.2533 -86.7486 311° West 326 375 10,000  Level Chicago Center
07:16AM 41.3114 -86.8400 310° West 327 376 10,000 -120 Level Chicago Center
07:17AM 41.3669 -86.9256 311° West 312 359 9,800 -960 Descending Chicago Center
07:18AM 41.4178 -87.0089 309° West 295 339 8,100 -1,680 Descending Chicago Center
07:19AM 41.4511 -87.1317 290° West 298 343 6,500 -1,380 Descending Chicago Center
07:20AM 41.4667 -87.2000 287° West 287 330 5,800 -1,020 Descending Chicago TRACON
07:21AM 41.5000 -87.3000 294° West 282 325 4,800 -900 Descending Chicago TRACON
07:22AM 41.5167 -87.4000 283° West 281 323 4,000 -600 Descending Chicago TRACON
07:22AM 41.5269 -87.4261 298° West 280 322 4,000  Level Chicago Center
07:23AM 41.5519 -87.5225 289° West 278 320 4,000  Level Chicago Center
07:24AM 41.5747 -87.6167 288° West 272 313 4,000 -240 Level Chicago Center
07:25AM 41.5972 -87.7069 288° West 263 303 3,600 -660 Descending Chicago Center
07:26AM 41.6208 -87.7881 291° West 247 284 2,700 -660 Descending Chicago Center
07:27AM 41.6667 -87.8000 349° North 220 253 2,500 -420 Descending Chicago TRACON
07:28AM 41.7167 -87.8167 346° North 166 191 2,000 -600 Descending Chicago TRACON
07:29AM 41.7500 -87.7833 37° Northeast 131 151 1,300 -660 Descending Chicago TRACON
07:32AM 41.7833 -87.7500 334° Northwest  Level FlightAware Approximate